Date,TemperatureHighF,TemperatureAvgF,TemperatureLowF,DewpointHighF,DewpointAvgF,DewpointLowF,HumidityHigh,HumidityAvg,HumidityLow,PressureMaxIn,PressureMinIn,WindSpeedMaxMPH,WindSpeedAvgMPH,GustSpeedMaxMPH,PrecipitationSumIn
2013-1-1,-2,-5,-6,-5,-8,-10,86,84,80,0.00,40.00,20,10,35,0.00
2013-1-2,-2,-4,-6,-6,-8,-12,86,82,75,0.00,40.00,24,15,44,0.00
2013-1-3,14,6,-6,-8,-13,-19,83,46,23,0.00,40.00,9,7,22,0.00
2013-1-4,23,16,14,3,-1,-12,59,48,27,0.00,40.00,9,4,23,0.00
2013-1-5,16,14,10,-9,-13,-24,37,28,14,0.00,40.00,26,16,43,0.00
2013-1-6,28,24,22,-11,-26,-38,22,10,4,0.00,40.00,23,16,28,0.00
2013-1-7,24,21,18,-9,-18,-26,24,17,11,0.00,40.00,19,14,29,0.00
2013-1-8,18,16,11,10,2,-19,76,58,18,0.00,40.00,23,16,40,0.00
2013-1-9,29,23,17,5,1,-6,57,39,21,0.00,40.00,18,10,24,0.00
2013-1-10,25,22,18,6,-2,-13,55,37,17,0.00,40.00,23,16,35,0.00
2013-1-11,10,-2,-10,7,-7,-14,92,78,62,0.00,40.00,21,16,39,0.00
2013-1-12,-8,-13,-15,-15,-18,-19,82,79,71,0.00,40.00,13,10,26,0.00
2013-1-13,-10,-14,-16,-15,-19,-21,83,78,67,0.00,40.00,15,10,24,0.00
2013-1-14,-7,-13,-15,-16,-18,-19,83,77,64,0.00,40.00,15,12,25,0.00
2013-1-15,10,-4,-16,8,-9,-22,92,79,64,0.00,40.00,28,17,46,0.00
2013-1-16,21,15,8,12,8,6,95,76,53,0.00,40.00,21,12,39,0.00
2013-1-17,24,18,15,6,0,-5,65,46,34,0.00,40.00,16,11,25,0.00
2013-1-18,20,17,16,-4,-7,-9,37,33,31,0.00,40.00,27,20,47,0.00
2013-1-19,18,16,14,-3,-4,-6,44,40,34,0.00,40.00,31,28,57,0.00
2013-1-20,20,17,15,-1,-5,-12,48,38,28,0.00,40.00,25,21,50,0.00
2013-1-21,19,16,13,4,-4,-15,59,44,20,0.00,40.00,28,22,50,0.00
2013-1-22,27,23,20,-18,-22,-26,16,11,8,0.00,40.00,27,20,53,0.00
2013-1-23,34,30,26,-10,-17,-28,15,12,7,0.00,40.00,24,20,40,0.00
2013-1-24,29,25,21,21,1,-15,96,47,14,0.00,40.00,28,23,52,0.00
2013-1-25,25,22,20,21,20,18,99,93,83,0.00,40.00,18,13,32,0.00
2013-1-26,30,23,19,24,20,15,99,89,64,0.00,40.00,15,10,26,0.00
2013-1-27,24,21,18,24,17,5,98,83,56,0.00,40.00,20,17,40,0.00
2013-1-28,18,14,7,15,8,3,92,78,59,0.00,40.00,19,13,41,0.00
2013-1-29,4,-5,-9,0,-9,-13,88,84,79,0.00,40.00,17,13,29,0.00
2013-1-30,7,-2,-9,6,-5,-12,92,87,82,0.00,40.00,36,26,64,0.00
2013-1-31,11,9,7,7,6,4,92,87,74,0.00,40.00,30,22,60,0.00